Terminal Aerodrome Forecast
Issued by NWS

Home | Current Version | Previous Version | Text Only | Print | Product List | Glossary On
Versions: 1 2 3 4 5 6 7 8 9 10 11 12 13 14 15 16 17 18 19 20 21 22 23 24 25 26 27 28 29 30
000
FTUS43 KILX 210520
TAFCMI
TAF
KCMI 210520Z 2106/2206 30009KT P6SM OVC025
     FM210900 32010KT P6SM OVC015
     FM212000 32013KT P6SM BKN060
     FM212300 29010KT P6SM SCT150=

USA.gov is the U.S. government's official web portal to all federal, state and local government web resources and services.